Ischia Jet — IOBI — position and weather

sailwx.info

Track history (hours):
 
Tides and Currents Weather Stations Pressure Air Temp Water Temp Dewpoint Dewpoint Depression Visibility Wind Speed Wind Dir Waves Ship Positions

Ischia Jet

Last reported at 2017-Jun-23 08:12 UTC. Time now 2017-Jun-23 10:26 UTC.
Position N 40°46' E 014°18'.

Length 42 m; draft 1.2 m.

Type: Passenger vessel. MMSI: 247048700.

Date/timePositionNaut miles runAvg speedWind from/ knotsBaromVisibWave heightAir tempDewpointWater temp
2017-Jun-23 08:12N 40°46' E 014°18'524.0
2017-Jun-23 08:00N 40°41' E 014°19'5 6.9
2017-Jun-23 07:13N 40°36' E 014°18'418.4
2017-Jun-23 07:00N 40°38' E 014°23'3 0.2
2017-Jun-22 16:45N 40°41' E 014°25'313.0
2017-Jun-22 16:30N 40°38' E 014°23'813.8
2017-Jun-22 15:56N 40°33' E 014°14'12 9.4
2017-Jun-22 14:40N 40°37' E 014°29'0 1.3
2017-Jun-22 14:30N 40°38' E 014°29'10 9.5
2017-Jun-22 13:29N 40°36' E 014°17'1421.7
2017-Jun-22 12:51N 40°50' E 014°17'1 0.8
2017-Jun-22 11:37N 40°50' E 014°15'1 7.0
2017-Jun-22 11:30N 40°50' E 014°16'1122.1
2017-Jun-22 11:01N 40°39' E 014°19'3 0.9
2017-Jun-22 07:13N 40°36' E 014°18'418.5
2017-Jun-22 07:00N 40°38' E 014°23'2 0.1
2017-Jun-21 16:34N 40°40' E 014°24'123.1
2017-Jun-21 16:30N 40°38' E 014°23'5 4.2
2017-Jun-21 15:15N 40°36' E 014°17'623.2
2017-Jun-21 15:00N 40°42' E 014°19'9 3.6
2017-Jun-21 12:31N 40°51' E 014°16'0 0.0
2017-Jun-21 12:25N 40°51' E 014°16'4 0.9
2017-Jun-21 08:23N 40°47' E 014°19'923.1
2017-Jun-21 08:00N 40°38' E 014°18'2 2.2
2017-Jun-21 07:11N 40°37' E 014°19'318.5
2017-Jun-21 07:00N 40°38' E 014°22'2 0.1
2017-Jun-20 16:40N 40°39' E 014°24'2 9.6
2017-Jun-20 16:28N 40°38' E 014°23'6 8.2
2017-Jun-20 15:42N 40°34' E 014°16'3 1.2
2017-Jun-20 13:29N 40°36' E 014°16'1122.2
2017-Jun-20 12:59N 40°47' E 014°17'2 0.9
2017-Jun-20 11:18N 40°46' E 014°18'721.9
2017-Jun-20 11:00N 40°39' E 014°18'3 0.7
2017-Jun-20 07:11N 40°37' E 014°19'318.8
2017-Jun-20 07:00N 40°38' E 014°23'  
2017-Jun-17 13:24N 40°37' E 014°16'13 7.4
2017-Jun-17 11:37N 40°50' E 014°16'214.5
2017-Jun-17 11:28N 40°48' E 014°17'1122.3
2017-Jun-17 11:00N 40°38' E 014°16'12 0.5
2017-Jun-16 11:31N 40°50' E 014°16'0 9.7
2017-Jun-16 11:30N 40°50' E 014°16'12 1.0
2017-Jun-15 23:11N 40°39' E 014°24'5 0.6
2017-Jun-15 14:33N 40°37' E 014°30'11 7.8
2017-Jun-15 13:12N 40°41' E 014°17'523.4
2017-Jun-15 13:00N 40°46' E 014°18'4 2.9
2017-Jun-15 11:29N 40°50' E 014°17'17 8.7
2017-Jun-15 09:34N 40°33' E 014°14'112.5
2017-Jun-15 09:27N 40°34' E 014°16'1022.0
2017-Jun-15 09:00N 40°37' E 014°29'4 0.3
2017-Jun-14 16:33N 40°40' E 014°24'123.8
2017-Jun-14 16:30N 40°39' E 014°24'713.0
2017-Jun-14 15:57N 40°34' E 014°16'3 6.5
2017-Jun-14 15:30N 40°34' E 014°20'8 8.6
2017-Jun-14 14:33N 40°37' E 014°29'0 2.9
2017-Jun-14 14:25N 40°38' E 014°29'11 4.1
2017-Jun-14 11:41N 40°34' E 014°15'517.1
2017-Jun-14 11:23N 40°38' E 014°20'2 4.2
2017-Jun-14 10:51N 40°38' E 014°23'0 0.0
2017-Jun-14 10:30N 40°38' E 014°23'2 0.5
2017-Jun-14 07:08N 40°38' E 014°20'2 7.6
2017-Jun-14 06:56N 40°38' E 014°23'3 0.2
2017-Jun-13 16:42N 40°40' E 014°25'313.7
2017-Jun-13 16:30N 40°38' E 014°23'7 2.6
2017-Jun-13 14:00N 40°34' E 014°16'2 3.5
2017-Jun-13 13:29N 40°36' E 014°17'1122.7
2017-Jun-13 13:00N 40°46' E 014°18'4 4.1
2017-Jun-13 11:59N 40°50' E 014°15'6 7.7
2017-Jun-13 11:14N 40°45' E 014°18'623.7
2017-Jun-13 10:59N 40°39' E 014°17'  
Track history (hours):
 
Tides and Currents Weather Stations Pressure Air Temp Water Temp Dewpoint Dewpoint Depression Visibility Wind Speed Wind Dir Waves Ship Positions

Ischia Jet

Last reported at 2017-Jun-23 08:12 UTC. Time now 2017-Jun-23 10:26 UTC.
Position N 40°46' E 014°18'.

Length 42 m; draft 1.2 m.

Type: Passenger vessel. MMSI: 247048700.

Date/timePositionNaut miles runAvg speedWind from/ knotsBaromVisibWave heightAir tempDewpointWater temp
2017-Jun-23 08:12N 40°46' E 014°18'524.0
2017-Jun-23 08:00N 40°41' E 014°19'5 6.9
2017-Jun-23 07:13N 40°36' E 014°18'418.4
2017-Jun-23 07:00N 40°38' E 014°23'3 0.2
2017-Jun-22 16:45N 40°41' E 014°25'313.0
2017-Jun-22 16:30N 40°38' E 014°23'813.8
2017-Jun-22 15:56N 40°33' E 014°14'12 9.4
2017-Jun-22 14:40N 40°37' E 014°29'0 1.3
2017-Jun-22 14:30N 40°38' E 014°29'10 9.5
2017-Jun-22 13:29N 40°36' E 014°17'1421.7
2017-Jun-22 12:51N 40°50' E 014°17'1 0.8
2017-Jun-22 11:37N 40°50' E 014°15'1 7.0
2017-Jun-22 11:30N 40°50' E 014°16'1122.1
2017-Jun-22 11:01N 40°39' E 014°19'3 0.9
2017-Jun-22 07:13N 40°36' E 014°18'418.5
2017-Jun-22 07:00N 40°38' E 014°23'2 0.1
2017-Jun-21 16:34N 40°40' E 014°24'123.1
2017-Jun-21 16:30N 40°38' E 014°23'5 4.2
2017-Jun-21 15:15N 40°36' E 014°17'623.2
2017-Jun-21 15:00N 40°42' E 014°19'9 3.6
2017-Jun-21 12:31N 40°51' E 014°16'0 0.0
2017-Jun-21 12:25N 40°51' E 014°16'4 0.9
2017-Jun-21 08:23N 40°47' E 014°19'923.1
2017-Jun-21 08:00N 40°38' E 014°18'2 2.2
2017-Jun-21 07:11N 40°37' E 014°19'318.5
2017-Jun-21 07:00N 40°38' E 014°22'2 0.1
2017-Jun-20 16:40N 40°39' E 014°24'2 9.6
2017-Jun-20 16:28N 40°38' E 014°23'6 8.2
2017-Jun-20 15:42N 40°34' E 014°16'3 1.2
2017-Jun-20 13:29N 40°36' E 014°16'1122.2
2017-Jun-20 12:59N 40°47' E 014°17'2 0.9
2017-Jun-20 11:18N 40°46' E 014°18'721.9
2017-Jun-20 11:00N 40°39' E 014°18'3 0.7
2017-Jun-20 07:11N 40°37' E 014°19'318.8
2017-Jun-20 07:00N 40°38' E 014°23'  
2017-Jun-17 13:24N 40°37' E 014°16'13 7.4
2017-Jun-17 11:37N 40°50' E 014°16'214.5
2017-Jun-17 11:28N 40°48' E 014°17'1122.3
2017-Jun-17 11:00N 40°38' E 014°16'12 0.5
2017-Jun-16 11:31N 40°50' E 014°16'0 9.7
2017-Jun-16 11:30N 40°50' E 014°16'12 1.0
2017-Jun-15 23:11N 40°39' E 014°24'5 0.6
2017-Jun-15 14:33N 40°37' E 014°30'11 7.8
2017-Jun-15 13:12N 40°41' E 014°17'523.4
2017-Jun-15 13:00N 40°46' E 014°18'4 2.9
2017-Jun-15 11:29N 40°50' E 014°17'17 8.7
2017-Jun-15 09:34N 40°33' E 014°14'112.5
2017-Jun-15 09:27N 40°34' E 014°16'1022.0
2017-Jun-15 09:00N 40°37' E 014°29'4 0.3
2017-Jun-14 16:33N 40°40' E 014°24'123.8
2017-Jun-14 16:30N 40°39' E 014°24'713.0
2017-Jun-14 15:57N 40°34' E 014°16'3 6.5
2017-Jun-14 15:30N 40°34' E 014°20'8 8.6
2017-Jun-14 14:33N 40°37' E 014°29'0 2.9
2017-Jun-14 14:25N 40°38' E 014°29'11 4.1
2017-Jun-14 11:41N 40°34' E 014°15'517.1
2017-Jun-14 11:23N 40°38' E 014°20'2 4.2
2017-Jun-14 10:51N 40°38' E 014°23'0 0.0
2017-Jun-14 10:30N 40°38' E 014°23'2 0.5
2017-Jun-14 07:08N 40°38' E 014°20'2 7.6
2017-Jun-14 06:56N 40°38' E 014°23'3 0.2
2017-Jun-13 16:42N 40°40' E 014°25'313.7
2017-Jun-13 16:30N 40°38' E 014°23'7 2.6
2017-Jun-13 14:00N 40°34' E 014°16'2 3.5
2017-Jun-13 13:29N 40°36' E 014°17'1122.7
2017-Jun-13 13:00N 40°46' E 014°18'4 4.1
2017-Jun-13 11:59N 40°50' E 014°15'6 7.7
2017-Jun-13 11:14N 40°45' E 014°18'623.7
2017-Jun-13 10:59N 40°39' E 014°17'  

Dump ship's entire track history